createdAt,value
2019-02-16T00:00:59.910Z,1023.64
2019-02-16T00:01:59.849Z,1023.65
2019-02-16T00:02:59.840Z,1023.64
2019-02-16T00:03:59.828Z,1023.62
2019-02-16T00:04:59.817Z,1023.64
2019-02-16T00:05:59.879Z,1023.67
2019-02-16T00:06:59.805Z,1023.65
2019-02-16T00:07:59.785Z,1023.62
2019-02-16T00:08:59.774Z,1023.69
2019-02-16T00:09:59.800Z,1023.62
2019-02-16T00:10:59.778Z,1023.61
2019-02-16T00:11:59.742Z,1023.63
2019-02-16T00:12:59.731Z,1023.56
2019-02-16T00:13:59.721Z,1023.60
2019-02-16T00:14:59.709Z,1023.53
2019-02-16T00:15:59.734Z,1023.56
2019-02-16T00:16:59.691Z,1023.52
2019-02-16T00:17:59.680Z,1023.56
2019-02-16T00:18:59.670Z,1023.50
2019-02-16T00:19:59.654Z,1023.53
2019-02-16T00:21:04.053Z,1023.50
2019-02-16T00:21:59.636Z,1023.48
2019-02-16T00:22:59.625Z,1023.52
2019-02-16T00:23:59.620Z,1023.52
2019-02-16T00:24:59.605Z,1023.51
2019-02-16T00:25:59.622Z,1023.51
2019-02-16T00:26:59.584Z,1023.53
2019-02-16T00:27:59.573Z,1023.51
2019-02-16T00:28:59.561Z,1023.49
2019-02-16T00:29:59.591Z,1023.48
2019-02-16T00:30:59.567Z,1023.40
2019-02-16T00:31:59.532Z,1023.44
2019-02-16T00:32:59.551Z,1023.44
2019-02-16T00:33:59.558Z,1023.41
2019-02-16T00:34:59.498Z,1023.42
2019-02-16T00:35:59.513Z,1023.47
2019-02-16T00:36:59.479Z,1023.47
2019-02-16T00:37:59.468Z,1023.43
2019-02-16T00:38:59.472Z,1023.46
2019-02-16T00:39:59.448Z,1023.42
2019-02-16T00:40:59.469Z,1023.42
2019-02-16T00:41:59.426Z,1023.40
2019-02-16T00:42:59.416Z,1023.41
2019-02-16T00:43:59.403Z,1023.42
2019-02-16T00:44:59.406Z,1023.43
2019-02-16T00:45:59.409Z,1023.40
2019-02-16T00:46:59.372Z,1023.40
2019-02-16T00:47:59.362Z,1023.44
2019-02-16T00:48:59.352Z,1023.43
2019-02-16T00:49:59.341Z,1023.39
2019-02-16T00:50:59.360Z,1023.41
2019-02-16T00:51:59.330Z,1023.38
2019-02-16T00:52:59.308Z,1023.39
2019-02-16T00:53:59.299Z,1023.35
2019-02-16T00:54:59.295Z,1023.35
2019-02-16T00:55:59.343Z,1023.33
2019-02-16T00:56:59.278Z,1023.35
2019-02-16T00:57:59.255Z,1023.34
2019-02-16T00:58:59.247Z,1023.34
2019-02-16T00:59:59.234Z,1023.31
2019-02-16T01:00:59.252Z,1023.30
2019-02-16T01:01:59.216Z,1023.28
2019-02-16T01:02:59.207Z,1023.22
2019-02-16T01:03:59.199Z,1023.26
2019-02-16T01:04:59.184Z,1023.27
2019-02-16T01:05:59.206Z,1023.22
2019-02-16T01:06:59.163Z,1023.25
2019-02-16T01:07:59.152Z,1023.18
2019-02-16T01:08:59.142Z,1023.20
2019-02-16T01:09:59.133Z,1023.22
2019-02-16T01:10:59.144Z,1023.19
2019-02-16T01:11:59.108Z,1023.14
2019-02-16T01:12:59.098Z,1023.15
2019-02-16T01:13:59.092Z,1023.09
2019-02-16T01:14:59.077Z,1023.14
2019-02-16T01:15:59.091Z,1023.13
2019-02-16T01:16:59.058Z,1023.09
2019-02-16T01:17:59.045Z,1023.06
2019-02-16T01:18:59.036Z,1023.02
2019-02-16T01:19:59.028Z,1023.06
2019-02-16T01:20:59.040Z,1023.04
2019-02-16T01:21:59.008Z,1023.01
2019-02-16T01:22:58.993Z,1023.02
2019-02-16T01:23:58.984Z,1023.00
2019-02-16T01:24:58.978Z,1023.01
2019-02-16T01:25:58.985Z,1022.96
2019-02-16T01:26:58.954Z,1022.96
2019-02-16T01:27:58.942Z,1022.98
2019-02-16T01:28:58.939Z,1022.93
2019-02-16T01:29:58.920Z,1022.94
2019-02-16T01:30:58.934Z,1022.96
2019-02-16T01:31:58.903Z,1022.93
2019-02-16T01:32:58.894Z,1022.88
2019-02-16T01:33:58.878Z,1022.92
2019-02-16T01:34:58.865Z,1022.89
2019-02-16T01:35:58.882Z,1022.90
2019-02-16T01:36:58.847Z,1022.90
2019-02-16T01:37:58.841Z,1022.86
2019-02-16T01:38:58.825Z,1022.88
2019-02-16T01:39:58.814Z,1022.89
2019-02-16T01:40:58.833Z,1022.84
2019-02-16T01:41:58.796Z,1022.83
2019-02-16T01:42:58.790Z,1022.84
2019-02-16T01:43:58.771Z,1022.83
2019-02-16T01:44:58.762Z,1022.78
2019-02-16T01:45:58.793Z,1022.78
2019-02-16T01:46:58.767Z,1022.77
2019-02-16T01:47:58.730Z,1022.78
2019-02-16T01:48:58.719Z,1022.75
2019-02-16T01:49:58.709Z,1022.76
2019-02-16T01:50:58.736Z,1022.79
2019-02-16T01:51:58.689Z,1022.75
2019-02-16T01:52:58.677Z,1022.71
2019-02-16T01:53:58.667Z,1022.72
2019-02-16T01:54:58.656Z,1022.71
2019-02-16T01:55:58.675Z,1022.72
2019-02-16T01:56:58.638Z,1022.71
2019-02-16T01:57:58.628Z,1022.69
2019-02-16T01:58:58.615Z,1022.70
2019-02-16T01:59:58.630Z,1022.67
2019-02-16T02:00:58.615Z,1022.65
2019-02-16T02:01:58.583Z,1022.62
2019-02-16T02:02:58.572Z,1022.59
2019-02-16T02:03:58.559Z,1022.55
2019-02-16T02:04:58.552Z,1022.57
2019-02-16T02:05:58.564Z,1022.58
2019-02-16T02:06:58.528Z,1022.57
2019-02-16T02:07:58.517Z,1022.54
2019-02-16T02:08:58.509Z,1022.59
2019-02-16T02:09:58.516Z,1022.56
2019-02-16T02:10:58.511Z,1022.54
2019-02-16T02:11:58.474Z,1022.54
2019-02-16T02:12:58.466Z,1022.50
2019-02-16T02:13:58.454Z,1022.51
2019-02-16T02:14:58.442Z,1022.46
2019-02-16T02:15:58.469Z,1022.40
2019-02-16T02:16:58.418Z,1022.40
2019-02-16T02:17:58.409Z,1022.40
2019-02-16T02:18:58.398Z,1022.40
2019-02-16T02:19:58.385Z,1022.41
2019-02-16T02:20:58.422Z,1022.39
2019-02-16T02:21:58.373Z,1022.36
2019-02-16T02:22:58.354Z,1022.36
2019-02-16T02:23:58.345Z,1022.31
2019-02-16T02:24:58.332Z,1022.33
2019-02-16T02:25:58.349Z,1022.33
2019-02-16T02:26:58.319Z,1022.34
2019-02-16T02:27:58.299Z,1022.35
2019-02-16T02:28:58.288Z,1022.36
2019-02-16T02:29:58.277Z,1022.35
2019-02-16T02:30:58.302Z,1022.39
2019-02-16T02:31:58.256Z,1022.37
2019-02-16T02:32:58.256Z,1022.35
2019-02-16T02:33:58.233Z,1022.35
2019-02-16T02:34:58.223Z,1022.31
2019-02-16T02:35:58.237Z,1022.31
2019-02-16T02:36:58.202Z,1022.26
2019-02-16T02:37:58.196Z,1022.25
2019-02-16T02:38:58.179Z,1022.28
2019-02-16T02:39:58.170Z,1022.26
2019-02-16T02:40:58.184Z,1022.24
2019-02-16T02:41:58.144Z,1022.27
2019-02-16T02:42:58.134Z,1022.20
2019-02-16T02:43:58.125Z,1022.23
2019-02-16T02:44:58.118Z,1022.20
2019-02-16T02:45:58.128Z,1022.23
2019-02-16T02:46:58.099Z,1022.17
2019-02-16T02:47:58.087Z,1022.19
2019-02-16T02:48:58.073Z,1022.18
2019-02-16T02:49:58.060Z,1022.16
2019-02-16T02:50:58.075Z,1022.20
2019-02-16T02:51:58.038Z,1022.17
2019-02-16T02:52:58.029Z,1022.18
2019-02-16T02:53:58.019Z,1022.14
2019-02-16T02:54:58.005Z,1022.21
2019-02-16T02:55:58.038Z,1022.21
2019-02-16T02:56:57.984Z,1022.20
2019-02-16T02:57:57.979Z,1022.17
2019-02-16T02:58:57.961Z,1022.21
2019-02-16T02:59:57.961Z,1022.20
2019-02-16T03:00:57.968Z,1022.22
2019-02-16T03:01:57.932Z,1022.19
2019-02-16T03:02:57.919Z,1022.24
2019-02-16T03:03:57.909Z,1022.19
2019-02-16T03:04:57.899Z,1022.21
2019-02-16T03:05:57.925Z,1022.20
2019-02-16T03:06:57.877Z,1022.16
2019-02-16T03:07:57.866Z,1022.13
2019-02-16T03:08:57.867Z,1022.13
2019-02-16T03:09:57.847Z,1022.10
2019-02-16T03:10:57.861Z,1022.13
2019-02-16T03:11:57.823Z,1022.11
2019-02-16T03:12:57.813Z,1022.08
2019-02-16T03:13:57.807Z,1022.14
2019-02-16T03:14:57.794Z,1022.09
2019-02-16T03:15:57.817Z,1022.12
2019-02-16T03:16:57.772Z,1022.12
2019-02-16T03:17:57.760Z,1022.12
2019-02-16T03:18:57.758Z,1022.08
2019-02-16T03:19:57.745Z,1022.09
2019-02-16T03:20:57.756Z,1022.09
2019-02-16T03:22:02.970Z,1022.03
2019-02-16T03:22:58.708Z,1022.06
2019-02-16T03:23:57.762Z,1022.09
2019-02-16T03:24:57.691Z,1022.10
2019-02-16T03:25:57.704Z,1022.03
2019-02-16T03:26:57.669Z,1022.05
2019-02-16T03:27:57.669Z,1022.06
2019-02-16T03:28:57.647Z,1022.08
2019-02-16T03:29:57.637Z,1022.07
2019-02-16T03:30:57.657Z,1022.04
2019-02-16T03:31:57.617Z,1022.02
2019-02-16T03:32:57.608Z,1021.97
2019-02-16T03:33:57.603Z,1021.97
2019-02-16T03:34:57.595Z,1022.01
2019-02-16T03:35:57.603Z,1021.94
2019-02-16T03:36:57.563Z,1022.00
2019-02-16T03:37:57.553Z,1022.00
2019-02-16T03:38:57.546Z,1022.00
2019-02-16T03:39:57.540Z,1021.99
2019-02-16T03:40:57.545Z,1022.00
2019-02-16T03:41:57.508Z,1021.99
2019-02-16T03:42:57.499Z,1021.97
2019-02-16T03:43:57.487Z,1022.00
2019-02-16T03:44:57.478Z,1021.97
2019-02-16T03:45:57.490Z,1021.98
2019-02-16T03:46:57.460Z,1021.98
2019-02-16T03:47:57.447Z,1021.95
2019-02-16T03:48:57.437Z,1021.95
2019-02-16T03:49:57.426Z,1022.02
2019-02-16T03:50:57.444Z,1021.97
2019-02-16T03:51:57.429Z,1021.90
2019-02-16T03:52:57.394Z,1021.87
2019-02-16T03:53:57.387Z,1021.87
2019-02-16T03:54:57.376Z,1021.86
2019-02-16T03:55:57.388Z,1021.85
2019-02-16T03:56:57.353Z,1021.84
2019-02-16T03:57:57.342Z,1021.84
2019-02-16T03:58:57.334Z,1021.82
2019-02-16T03:59:57.321Z,1021.82
2019-02-16T04:00:57.341Z,1021.85
2019-02-16T04:01:57.302Z,1021.85
2019-02-16T04:02:57.289Z,1021.87
2019-02-16T04:03:57.278Z,1021.85
2019-02-16T04:04:57.285Z,1021.88
2019-02-16T04:05:57.284Z,1021.87
2019-02-16T04:06:57.249Z,1021.85
2019-02-16T04:07:57.243Z,1021.86
2019-02-16T04:08:57.231Z,1021.86
2019-02-16T04:09:57.217Z,1021.85
2019-02-16T04:10:57.233Z,1021.82
2019-02-16T04:11:57.196Z,1021.86
2019-02-16T04:12:57.184Z,1021.80
2019-02-16T04:13:57.178Z,1021.79
2019-02-16T04:14:57.166Z,1021.75
2019-02-16T04:15:57.193Z,1021.74
2019-02-16T04:16:57.144Z,1021.72
2019-02-16T04:17:57.134Z,1021.73
2019-02-16T04:18:57.121Z,1021.69
2019-02-16T04:19:57.111Z,1021.67
2019-02-16T04:20:57.101Z,1021.64
2019-02-16T04:21:57.126Z,1021.69
2019-02-16T04:22:57.090Z,1021.64
2019-02-16T04:23:57.073Z,1021.62
2019-02-16T04:24:57.065Z,1021.61
2019-02-16T04:25:57.048Z,1021.62
2019-02-16T04:26:57.037Z,1021.56
2019-02-16T04:27:57.062Z,1021.58
2019-02-16T04:28:57.019Z,1021.51
2019-02-16T04:29:57.005Z,1021.55
2019-02-16T04:30:56.995Z,1021.53
2019-02-16T04:31:56.982Z,1021.52
2019-02-16T04:32:56.974Z,1021.49
2019-02-16T04:33:56.985Z,1021.47
2019-02-16T04:34:56.951Z,1021.44
2019-02-16T04:35:56.942Z,1021.47
2019-02-16T04:36:56.930Z,1021.42
2019-02-16T04:37:56.933Z,1021.45
2019-02-16T04:38:56.947Z,1021.43
2019-02-16T04:39:56.898Z,1021.39
2019-02-16T04:40:56.888Z,1021.40
2019-02-16T04:41:56.877Z,1021.39
2019-02-16T04:42:56.869Z,1021.37
2019-02-16T04:43:56.867Z,1021.34
2019-02-16T04:44:56.884Z,1021.31
2019-02-16T04:45:56.837Z,1021.35
2019-02-16T04:46:56.826Z,1021.32
2019-02-16T04:47:56.831Z,1021.30
2019-02-16T04:48:56.805Z,1021.29
2019-02-16T04:49:56.791Z,1021.28
2019-02-16T04:50:56.818Z,1021.27
2019-02-16T04:51:56.773Z,1021.27
2019-02-16T04:52:56.761Z,1021.25
2019-02-16T04:53:56.752Z,1021.25
2019-02-16T04:54:56.743Z,1021.24
2019-02-16T04:55:56.753Z,1021.26
2019-02-16T04:56:56.718Z,1021.25
2019-02-16T04:57:56.710Z,1021.28
2019-02-16T04:58:56.698Z,1021.28
2019-02-16T04:59:56.687Z,1021.23
2019-02-16T05:00:56.715Z,1021.25
2019-02-16T05:01:56.665Z,1021.24
2019-02-16T05:02:56.660Z,1021.17
2019-02-16T05:03:56.644Z,1021.20
2019-02-16T05:04:56.633Z,1021.17
2019-02-16T05:05:56.623Z,1021.19
2019-02-16T05:06:56.640Z,1021.17
2019-02-16T05:07:56.601Z,1021.10
2019-02-16T05:08:56.593Z,1021.18
2019-02-16T05:09:56.580Z,1021.14
2019-02-16T05:10:56.592Z,1021.11
2019-02-16T05:11:56.601Z,1021.12
2019-02-16T05:12:56.550Z,1021.11
2019-02-16T05:13:56.539Z,1021.14
2019-02-16T05:14:56.525Z,1021.10
2019-02-16T05:15:56.517Z,1021.14
2019-02-16T05:16:56.507Z,1021.11
2019-02-16T05:17:56.537Z,1021.09
2019-02-16T05:18:56.484Z,1021.09
2019-02-16T05:19:56.475Z,1021.07
2019-02-16T05:20:56.466Z,1021.08
2019-02-16T05:21:56.452Z,1021.10
2019-02-16T05:22:56.442Z,1021.10
2019-02-16T05:23:56.457Z,1021.04
2019-02-16T05:24:56.419Z,1021.10
2019-02-16T05:25:56.412Z,1021.09
2019-02-16T05:26:56.399Z,1021.06
2019-02-16T05:27:56.389Z,1021.04
2019-02-16T05:28:56.416Z,1021.02
2019-02-16T05:29:56.365Z,1021.03
2019-02-16T05:30:56.359Z,1021.05
2019-02-16T05:31:56.360Z,1021.03
2019-02-16T05:32:56.333Z,1021.02
2019-02-16T05:33:56.339Z,1021.04
2019-02-16T05:34:56.377Z,1020.99
2019-02-16T05:35:56.304Z,1020.99
2019-02-16T05:36:56.290Z,1020.98
2019-02-16T05:37:56.286Z,1020.96
2019-02-16T05:38:56.273Z,1020.97
2019-02-16T05:39:56.259Z,1020.96
2019-02-16T05:40:56.275Z,1020.98
2019-02-16T05:41:56.236Z,1021.00
2019-02-16T05:42:56.226Z,1021.03
2019-02-16T05:43:56.217Z,1021.01
2019-02-16T05:44:56.204Z,1021.02
2019-02-16T05:45:56.225Z,1021.02
2019-02-16T05:46:56.196Z,1021.07
2019-02-16T05:47:56.173Z,1021.04
2019-02-16T05:48:56.169Z,1021.04
2019-02-16T05:49:56.154Z,1021.02
2019-02-16T05:50:56.166Z,1021.05
2019-02-16T05:51:56.131Z,1021.05
2019-02-16T05:52:56.119Z,1021.02
2019-02-16T05:53:56.109Z,1021.03
2019-02-16T05:54:56.097Z,1020.99
2019-02-16T05:55:56.113Z,1021.01
2019-02-16T05:56:56.079Z,1021.00
2019-02-16T05:57:56.065Z,1021.02
2019-02-16T05:58:56.055Z,1021.01
2019-02-16T05:59:56.050Z,1021.04
2019-02-16T06:00:56.077Z,1021.05
2019-02-16T06:01:56.021Z,1021.01
2019-02-16T06:02:56.016Z,1021.04
2019-02-16T06:03:56.013Z,1020.99
2019-02-16T06:04:55.993Z,1021.01
2019-02-16T06:05:55.986Z,1021.00
2019-02-16T06:06:56.041Z,1020.98
2019-02-16T06:07:55.962Z,1021.02
2019-02-16T06:08:55.959Z,1020.99
2019-02-16T06:09:55.939Z,1020.93
2019-02-16T06:10:55.932Z,1020.95
2019-02-16T06:11:55.917Z,1020.92
2019-02-16T06:12:55.943Z,1020.90
2019-02-16T06:13:55.900Z,1020.88
2019-02-16T06:14:55.890Z,1020.90
2019-02-16T06:15:55.874Z,1020.88
2019-02-16T06:16:55.869Z,1020.91
2019-02-16T06:17:55.852Z,1020.92
2019-02-16T06:18:55.868Z,1020.89
2019-02-16T06:19:55.836Z,1020.92
2019-02-16T06:20:55.829Z,1020.93
2019-02-16T06:21:55.810Z,1020.94
2019-02-16T06:23:03.731Z,1020.93
2019-02-16T06:23:56.828Z,1020.91
2019-02-16T06:24:55.778Z,1020.94
2019-02-16T06:25:55.767Z,1020.91
2019-02-16T06:26:55.761Z,1020.96
2019-02-16T06:27:55.745Z,1020.95
2019-02-16T06:28:55.736Z,1020.93
2019-02-16T06:29:55.765Z,1020.94
2019-02-16T06:30:55.717Z,1020.91
2019-02-16T06:31:55.703Z,1020.90
2019-02-16T06:32:55.699Z,1020.90
2019-02-16T06:33:55.683Z,1020.87
2019-02-16T06:34:55.672Z,1020.87
2019-02-16T06:35:55.688Z,1020.88
2019-02-16T06:36:55.651Z,1020.94
2019-02-16T06:37:55.642Z,1020.91
2019-02-16T06:38:55.638Z,1020.94
2019-02-16T06:39:55.621Z,1021.00
2019-02-16T06:40:55.634Z,1021.00
2019-02-16T06:41:55.600Z,1020.95
2019-02-16T06:42:55.591Z,1021.00
2019-02-16T06:43:55.575Z,1020.94
2019-02-16T06:44:55.568Z,1020.91
2019-02-16T06:45:55.582Z,1020.97
2019-02-16T06:46:55.544Z,1020.97
2019-02-16T06:47:55.532Z,1020.96
2019-02-16T06:48:55.527Z,1020.98
2019-02-16T06:49:55.516Z,1021.04
2019-02-16T06:50:55.531Z,1021.03
2019-02-16T06:51:55.490Z,1021.03
2019-02-16T06:52:55.480Z,1021.13
2019-02-16T06:53:55.470Z,1021.06
2019-02-16T06:54:55.461Z,1021.05
2019-02-16T06:55:55.485Z,1021.08
2019-02-16T06:56:55.437Z,1021.12
2019-02-16T06:57:55.426Z,1021.05
2019-02-16T06:58:55.419Z,1021.06
2019-02-16T06:59:55.408Z,1021.07
2019-02-16T07:00:55.419Z,1021.07
2019-02-16T07:01:55.390Z,1021.04
2019-02-16T07:02:55.395Z,1021.01
2019-02-16T07:03:55.363Z,1021.04
2019-02-16T07:04:55.352Z,1021.06
2019-02-16T07:05:55.373Z,1021.08
2019-02-16T07:06:55.330Z,1021.12
2019-02-16T07:07:55.322Z,1021.11
2019-02-16T07:08:55.309Z,1021.15
2019-02-16T07:09:55.297Z,1021.14
2019-02-16T07:10:55.313Z,1021.11
2019-02-16T07:11:55.278Z,1021.07
2019-02-16T07:12:55.269Z,1021.08
2019-02-16T07:13:55.258Z,1021.09
2019-02-16T07:14:55.247Z,1021.07
2019-02-16T07:15:55.261Z,1021.07
2019-02-16T07:16:55.223Z,1021.05
2019-02-16T07:17:55.213Z,1021.03
2019-02-16T07:18:55.201Z,1020.99
2019-02-16T07:19:55.191Z,1021.02
2019-02-16T07:20:55.209Z,1021.00
2019-02-16T07:21:55.170Z,1020.97
2019-02-16T07:22:55.160Z,1020.97
2019-02-16T07:23:55.153Z,1020.99
2019-02-16T07:24:55.160Z,1020.97
2019-02-16T07:25:55.150Z,1020.98
2019-02-16T07:26:55.119Z,1021.01
2019-02-16T07:27:55.106Z,1021.08
2019-02-16T07:28:55.096Z,1021.06
2019-02-16T07:29:55.085Z,1021.05
2019-02-16T07:30:55.104Z,1021.00
2019-02-16T07:31:55.072Z,1021.06
2019-02-16T07:32:55.054Z,1021.01
2019-02-16T07:33:55.043Z,1020.96
2019-02-16T07:34:55.033Z,1020.96
2019-02-16T07:35:55.047Z,1020.98
2019-02-16T07:36:55.015Z,1020.96
2019-02-16T07:37:55.000Z,1020.95
2019-02-16T07:38:54.998Z,1020.93
2019-02-16T07:39:54.980Z,1020.94
2019-02-16T07:40:54.997Z,1020.97
2019-02-16T07:41:57.230Z,1020.96
2019-02-16T07:42:54.947Z,1020.95
2019-02-16T07:43:54.994Z,1020.93
2019-02-16T07:44:54.934Z,1020.92
2019-02-16T07:45:55.001Z,1020.84
2019-02-16T07:46:54.905Z,1020.85
2019-02-16T07:47:54.904Z,1020.89
2019-02-16T07:48:54.900Z,1020.84
2019-02-16T07:49:54.903Z,1020.88
2019-02-16T07:50:54.937Z,1020.90
2019-02-16T07:51:54.931Z,1020.88
2019-02-16T07:52:54.850Z,1020.84
2019-02-16T07:53:54.836Z,1020.89
2019-02-16T07:54:54.871Z,1020.81
2019-02-16T07:55:54.818Z,1020.83
2019-02-16T07:56:54.839Z,1020.81
2019-02-16T07:57:54.795Z,1020.85
2019-02-16T07:58:54.782Z,1020.82
2019-02-16T07:59:54.769Z,1020.90
2019-02-16T08:00:54.758Z,1020.90
2019-02-16T08:01:56.731Z,1020.85
2019-02-16T08:02:54.782Z,1020.88
2019-02-16T08:03:54.730Z,1020.93
2019-02-16T08:04:54.714Z,1020.91
2019-02-16T08:05:54.703Z,1020.94
2019-02-16T08:06:54.698Z,1020.94
2019-02-16T08:07:54.681Z,1020.92
2019-02-16T08:08:54.710Z,1020.90
2019-02-16T08:09:54.661Z,1020.86
2019-02-16T08:10:54.661Z,1020.91
2019-02-16T08:11:54.639Z,1020.87
2019-02-16T08:12:54.630Z,1020.91
2019-02-16T08:13:54.617Z,1020.89
2019-02-16T08:14:54.651Z,1020.89
2019-02-16T08:15:54.604Z,1020.90
2019-02-16T08:16:54.586Z,1020.83
2019-02-16T08:17:54.574Z,1020.85
2019-02-16T08:18:54.563Z,1020.84
2019-02-16T08:19:54.574Z,1020.84
2019-02-16T08:20:54.589Z,1020.83
2019-02-16T08:21:54.531Z,1020.79
2019-02-16T08:22:54.523Z,1020.81
2019-02-16T08:23:54.521Z,1020.74
2019-02-16T08:24:54.503Z,1020.71
2019-02-16T08:25:54.491Z,1020.71
2019-02-16T08:26:54.548Z,1020.76
2019-02-16T08:27:54.483Z,1020.75
2019-02-16T08:28:54.459Z,1020.72
2019-02-16T08:29:54.447Z,1020.74
2019-02-16T08:30:54.438Z,1020.69
2019-02-16T08:31:54.425Z,1020.70
2019-02-16T08:32:54.458Z,1020.70
2019-02-16T08:33:54.406Z,1020.70
2019-02-16T08:34:54.394Z,1020.70
2019-02-16T08:35:54.384Z,1020.70
2019-02-16T08:36:54.373Z,1020.71
2019-02-16T08:37:54.375Z,1020.73
2019-02-16T08:38:54.398Z,1020.61
2019-02-16T08:39:54.341Z,1020.67
2019-02-16T08:40:54.330Z,1020.64
2019-02-16T08:41:54.318Z,1020.60
2019-02-16T08:42:54.311Z,1020.65
2019-02-16T08:43:54.298Z,1020.63
2019-02-16T08:44:54.324Z,1020.63
2019-02-16T08:45:54.275Z,1020.64
2019-02-16T08:46:54.264Z,1020.66
2019-02-16T08:47:54.255Z,1020.64
2019-02-16T08:48:54.263Z,1020.66
2019-02-16T08:49:54.233Z,1020.60
2019-02-16T08:50:54.263Z,1020.65
2019-02-16T08:51:54.251Z,1020.60
2019-02-16T08:52:54.202Z,1020.59
2019-02-16T08:53:54.189Z,1020.60
2019-02-16T08:54:54.177Z,1020.68
2019-02-16T08:55:54.172Z,1020.67
2019-02-16T08:56:54.199Z,1020.69
2019-02-16T08:57:54.146Z,1020.62
2019-02-16T08:58:54.139Z,1020.66
2019-02-16T08:59:54.129Z,1020.69
2019-02-16T09:00:54.115Z,1020.63
2019-02-16T09:01:54.108Z,1020.62
2019-02-16T09:02:54.135Z,1020.58
2019-02-16T09:03:54.087Z,1020.57
2019-02-16T09:04:54.073Z,1020.55
2019-02-16T09:05:54.070Z,1020.54
2019-02-16T09:06:54.052Z,1020.47
2019-02-16T09:07:54.044Z,1020.48
2019-02-16T09:08:54.068Z,1020.52
2019-02-16T09:09:54.021Z,1020.46
2019-02-16T09:10:54.010Z,1020.55
2019-02-16T09:11:54.013Z,1020.56
2019-02-16T09:12:54.018Z,1020.50
2019-02-16T09:13:53.980Z,1020.58
2019-02-16T09:14:54.008Z,1020.58
2019-02-16T09:15:53.959Z,1020.59
2019-02-16T09:16:53.946Z,1020.60
2019-02-16T09:17:53.934Z,1020.60
2019-02-16T09:18:53.923Z,1020.60
2019-02-16T09:19:53.919Z,1020.63
2019-02-16T09:20:53.967Z,1020.57
2019-02-16T09:21:53.889Z,1020.47
2019-02-16T09:22:53.880Z,1020.49
2019-02-16T09:23:59.203Z,1020.50
2019-02-16T09:24:54.855Z,1020.45
2019-02-16T09:25:53.846Z,1020.49
2019-02-16T09:26:53.871Z,1020.52
2019-02-16T09:27:53.828Z,1020.55
2019-02-16T09:28:53.816Z,1020.51
2019-02-16T09:29:53.803Z,1020.48
2019-02-16T09:30:53.798Z,1020.50
2019-02-16T09:31:53.782Z,1020.51
2019-02-16T09:32:53.807Z,1020.55
2019-02-16T09:33:53.759Z,1020.57
2019-02-16T09:34:53.754Z,1020.53
2019-02-16T09:35:53.740Z,1020.53
2019-02-16T09:36:53.727Z,1020.54
2019-02-16T09:37:53.716Z,1020.52
2019-02-16T09:38:53.747Z,1020.53
2019-02-16T09:39:53.699Z,1020.51
2019-02-16T09:40:53.701Z,1020.53
2019-02-16T09:41:53.675Z,1020.56
2019-02-16T09:42:53.660Z,1020.62
2019-02-16T09:43:53.669Z,1020.60
2019-02-16T09:44:53.705Z,1020.60
2019-02-16T09:45:53.631Z,1020.54
2019-02-16T09:46:53.620Z,1020.56
2019-02-16T09:47:53.608Z,1020.60
2019-02-16T09:48:53.606Z,1020.59
2019-02-16T09:49:53.600Z,1020.64
2019-02-16T09:50:53.618Z,1020.57
2019-02-16T09:51:53.566Z,1020.58
2019-02-16T09:52:53.576Z,1020.56
2019-02-16T09:53:53.552Z,1020.57
2019-02-16T09:54:53.536Z,1020.53
2019-02-16T09:55:53.522Z,1020.46
2019-02-16T09:56:53.557Z,1020.51
2019-02-16T09:57:53.500Z,1020.47
2019-02-16T09:58:53.492Z,1020.52
2019-02-16T09:59:53.480Z,1020.55
2019-02-16T10:00:53.472Z,1020.56
2019-02-16T10:01:53.471Z,1020.51
2019-02-16T10:02:53.515Z,1020.50
2019-02-16T10:03:53.463Z,1020.50
2019-02-16T10:04:53.426Z,1020.51
2019-02-16T10:05:53.420Z,1020.52
2019-02-16T10:06:53.403Z,1020.47
2019-02-16T10:07:53.398Z,1020.57
2019-02-16T10:08:53.418Z,1020.58
2019-02-16T10:09:53.373Z,1020.57
2019-02-16T10:10:53.362Z,1020.53
2019-02-16T10:11:53.353Z,1020.59
2019-02-16T10:12:53.339Z,1020.58
2019-02-16T10:13:53.329Z,1020.62
2019-02-16T10:14:53.359Z,1020.59
2019-02-16T10:15:53.307Z,1020.52
2019-02-16T10:16:53.298Z,1020.55
2019-02-16T10:17:53.290Z,1020.56
2019-02-16T10:18:53.279Z,1020.56
2019-02-16T10:19:53.265Z,1020.52
2019-02-16T10:20:53.399Z,1020.54
2019-02-16T10:21:53.246Z,1020.48
2019-02-16T10:22:53.234Z,1020.49
2019-02-16T10:23:53.222Z,1020.44
2019-02-16T10:24:53.215Z,1020.47
2019-02-16T10:25:54.969Z,1020.39
2019-02-16T10:26:53.252Z,1020.39
2019-02-16T10:27:53.179Z,1020.38
2019-02-16T10:28:53.185Z,1020.39
2019-02-16T10:29:53.160Z,1020.39
2019-02-16T10:30:53.155Z,1020.32
2019-02-16T10:31:53.145Z,1020.32
2019-02-16T10:32:53.160Z,1020.37
2019-02-16T10:33:53.170Z,1020.34
2019-02-16T10:34:53.108Z,1020.33
2019-02-16T10:35:53.096Z,1020.32
2019-02-16T10:36:53.080Z,1020.26
2019-02-16T10:37:53.069Z,1020.31
2019-02-16T10:38:53.098Z,1020.30
2019-02-16T10:39:53.048Z,1020.31
2019-02-16T10:40:53.039Z,1020.34
2019-02-16T10:41:53.030Z,1020.35
2019-02-16T10:42:53.016Z,1020.32
2019-02-16T10:43:53.003Z,1020.34
2019-02-16T10:44:53.031Z,1020.31
2019-02-16T10:45:52.989Z,1020.28
2019-02-16T10:46:52.978Z,1020.30
2019-02-16T10:47:52.962Z,1020.32
2019-02-16T10:48:52.954Z,1020.32
2019-02-16T10:49:52.942Z,1020.31
2019-02-16T10:50:52.970Z,1020.25
2019-02-16T10:51:52.923Z,1020.23
2019-02-16T10:52:52.916Z,1020.25
2019-02-16T10:53:52.897Z,1020.16
2019-02-16T10:54:52.893Z,1020.10
2019-02-16T10:55:52.888Z,1020.10
2019-02-16T10:56:52.928Z,1020.09
2019-02-16T10:57:52.856Z,1020.04
2019-02-16T10:58:52.845Z,1020.03
2019-02-16T10:59:52.833Z,1020.04
2019-02-16T11:00:52.834Z,1020.10
2019-02-16T11:01:52.811Z,1020.10
2019-02-16T11:02:52.825Z,1020.10
2019-02-16T11:03:52.790Z,1020.09
2019-02-16T11:04:52.779Z,1020.12
2019-02-16T11:05:52.796Z,1020.11
2019-02-16T11:06:52.758Z,1020.07
2019-02-16T11:07:52.747Z,1020.09
2019-02-16T11:08:52.747Z,1020.08
2019-02-16T11:09:52.740Z,1020.11
2019-02-16T11:10:52.757Z,1020.03
2019-02-16T11:11:52.703Z,1020.07
2019-02-16T11:12:52.694Z,1020.13
2019-02-16T11:13:52.684Z,1020.09
2019-02-16T11:14:52.673Z,1020.05
2019-02-16T11:15:52.690Z,1020.11
2019-02-16T11:16:53.647Z,1020.10
2019-02-16T11:17:52.639Z,1020.08
2019-02-16T11:18:52.626Z,1020.07
2019-02-16T11:19:52.619Z,1020.11
2019-02-16T11:20:52.646Z,1020.15
2019-02-16T11:21:52.602Z,1020.18
2019-02-16T11:22:52.585Z,1020.13
2019-02-16T11:23:52.575Z,1020.16
2019-02-16T11:24:52.565Z,1020.12
2019-02-16T11:25:52.574Z,1020.14
2019-02-16T11:26:52.545Z,1020.18
2019-02-16T11:27:52.530Z,1020.16
2019-02-16T11:28:52.524Z,1020.19
2019-02-16T11:29:52.512Z,1020.19
2019-02-16T11:30:52.534Z,1020.12
2019-02-16T11:31:52.497Z,1020.15
2019-02-16T11:32:52.478Z,1020.15
2019-02-16T11:33:52.469Z,1020.22
2019-02-16T11:34:52.458Z,1020.15
2019-02-16T11:35:52.473Z,1020.16
2019-02-16T11:36:52.438Z,1020.13
2019-02-16T11:37:52.425Z,1020.18
2019-02-16T11:38:52.414Z,1020.12
2019-02-16T11:39:52.405Z,1020.11
2019-02-16T11:40:52.417Z,1020.09
2019-02-16T11:41:52.381Z,1020.10
2019-02-16T11:42:52.376Z,1020.14
2019-02-16T11:43:52.364Z,1020.15
2019-02-16T11:44:52.349Z,1020.14
2019-02-16T11:45:52.363Z,1020.17
2019-02-16T11:46:52.327Z,1020.09
2019-02-16T11:47:52.316Z,1020.11
2019-02-16T11:48:52.337Z,1020.08
2019-02-16T11:49:52.295Z,1020.15
2019-02-16T11:50:52.735Z,1020.04
2019-02-16T11:51:52.276Z,1020.08
2019-02-16T11:52:52.264Z,1020.10
2019-02-16T11:53:52.255Z,1020.02
2019-02-16T11:54:52.244Z,1020.03
2019-02-16T11:55:52.270Z,1019.99
2019-02-16T11:56:52.222Z,1019.94
2019-02-16T11:57:59.250Z,1019.93
2019-02-16T11:58:52.203Z,1019.91
2019-02-16T11:59:52.195Z,1019.90
2019-02-16T12:00:52.205Z,1019.90
2019-02-16T12:01:52.172Z,1019.91
2019-02-16T12:02:52.159Z,1019.92
2019-02-16T12:03:52.149Z,1019.91
2019-02-16T12:04:52.137Z,1019.84
2019-02-16T12:05:52.159Z,1019.90